Time;durP1;ratioP1;P1;durP2;ratioP2;P2;SDS_P1;SDS_P2;PMS_P1;PMS_P2;Temp;Humidity;BMP_temperature;BMP_pressure;BME280_temperature;BME280_humidity;BME280_pressure;Samples;Min_cycle;Max_cycle;Signal;HPM_P1;HPM_P2
2022/07/03 00:01:27;;;;;;;;;;;;;;;25.38;44.17;100214.88;4418963;32;20019;-83
2022/07/03 00:03:55;;;;;;;;;;;;;;;25.41;43.35;100219.19;4408499;32;19994;-83
2022/07/03 00:06:22;;;;;;;;;;;;;;;25.34;44.07;100207.97;4263085;32;5084531;-84
2022/07/03 00:08:48;;;;;;;;;;;;;;;25.18;44.24;100213.00;4426511;32;20045;-84
2022/07/03 00:11:15;;;;;;;;;;;;;;;25.29;44.07;100209.91;4419429;32;20480;-82
2022/07/03 00:13:42;;;;;;;;;;;;;;;25.28;43.86;100213.50;4415770;32;20324;-84
2022/07/03 00:16:09;;;;;;;;;;;;;;;25.05;44.88;100217.00;4416391;32;19977;-82
2022/07/03 00:18:36;;;;;;;;;;;;;;;25.15;44.92;100214.91;4422169;32;19981;-81
2022/07/03 00:21:04;;;;;;;;;;;;;;;24.90;45.71;100213.13;4411100;32;20008;-83
2022/07/03 00:23:35;;;;;;;;;;;;;;;25.18;44.18;100214.78;4421664;32;20342;-82
2022/07/03 00:26:03;;;;;;;;;;;;;;;25.14;44.38;100211.38;4415405;32;19982;-81
2022/07/03 00:28:29;;;;;;;;;;;;;;;25.11;44.52;100202.63;4427471;32;20305;-80
2022/07/03 00:30:56;;;;;;;;;;;;;;;25.18;44.55;100207.69;4429417;32;20003;-84
2022/07/03 00:33:24;;;;;;;;;;;;;;;25.10;44.97;100200.94;4435124;32;19982;-84
2022/07/03 00:35:51;;;;;;;;;;;;;;;25.09;45.15;100202.72;4414337;32;19999;-83
2022/07/03 00:38:18;;;;;;;;;;;;;;;25.14;44.89;100199.91;4431861;32;19990;-84
2022/07/03 00:40:45;;;;;;;;;;;;;;;24.85;45.55;100208.91;4416121;32;20028;-80
2022/07/03 00:43:12;;;;;;;;;;;;;;;24.95;45.38;100205.91;4416632;32;20812;-83
2022/07/03 00:45:39;;;;;;;;;;;;;;;24.65;46.39;100213.16;4423888;32;20403;-80
2022/07/03 00:48:06;;;;;;;;;;;;;;;24.83;45.77;100211.62;4433080;32;20389;-84
2022/07/03 00:50:33;;;;;;;;;;;;;;;24.94;45.40;100206.78;4426467;32;20974;-83
2022/07/03 00:53:01;;;;;;;;;;;;;;;24.75;46.17;100209.25;4416274;32;19974;-83
2022/07/03 00:55:28;;;;;;;;;;;;;;;24.83;46.10;100206.34;4416116;32;20640;-83
2022/07/03 00:57:56;;;;;;;;;;;;;;;24.97;45.06;100201.38;4416310;32;19986;-82
2022/07/03 01:00:23;;;;;;;;;;;;;;;24.77;45.98;100198.62;4429177;32;20088;-82
2022/07/03 01:02:53;;;;;;;;;;;;;;;24.74;46.21;100196.09;4416297;32;20649;-83
2022/07/03 01:05:28;;;;;;;;;;;;;;;24.73;46.04;100199.63;4419290;32;20009;-82
2022/07/03 01:07:58;;;;;;;;;;;;;;;24.64;46.51;100200.00;4431189;32;19974;-80
2022/07/03 01:10:43;;;;;;;;;;;;;;;24.16;47.87;100198.12;4416570;32;20780;-85
2022/07/03 01:13:14;;;;;;;;;;;;;;;24.39;47.14;100194.66;4416791;32;19997;-84
2022/07/03 01:15:51;;;;;;;;;;;;;;;24.37;47.37;100192.91;4427788;32;20433;-85
2022/07/03 01:18:35;;;;;;;;;;;;;;;24.33;47.64;100193.97;4426883;32;20812;-83
2022/07/03 01:21:10;;;;;;;;;;;;;;;24.27;47.82;100190.66;4420774;32;19985;-85
2022/07/03 01:24:02;;;;;;;;;;;;;;;24.47;47.10;100198.78;4430367;32;19982;-85
2022/07/03 01:26:30;;;;;;;;;;;;;;;24.58;46.50;100191.34;4427657;32;19996;-83
2022/07/03 01:28:59;;;;;;;;;;;;;;;24.34;47.22;100186.88;4427033;32;20738;-85
2022/07/03 01:31:26;;;;;;;;;;;;;;;24.52;46.90;100183.63;4411000;32;20346;-80
2022/07/03 01:33:52;;;;;;;;;;;;;;;24.30;47.56;100185.25;4421764;32;20092;-81
2022/07/03 01:36:20;;;;;;;;;;;;;;;24.56;46.31;100187.88;4395180;32;19986;-83
2022/07/03 01:38:47;;;;;;;;;;;;;;;24.45;46.90;100181.25;4392235;32;20062;-82
2022/07/03 01:41:14;;;;;;;;;;;;;;;24.11;48.22;100183.25;4372589;32;20039;-80
2022/07/03 01:43:43;;;;;;;;;;;;;;;24.19;47.65;100183.00;4370531;32;19995;-83
2022/07/03 01:46:10;;;;;;;;;;;;;;;24.30;47.35;100169.37;4370736;32;20042;-83
2022/07/03 01:48:37;;;;;;;;;;;;;;;24.22;47.67;100171.44;4369142;32;19967;-82
2022/07/03 01:51:04;;;;;;;;;;;;;;;24.15;48.09;100176.06;4369277;32;20412;-83
2022/07/03 01:53:31;;;;;;;;;;;;;;;24.23;47.73;100178.47;4370555;32;19990;-81
2022/07/03 01:55:59;;;;;;;;;;;;;;;23.89;49.07;100182.25;4377891;32;19987;-83
2022/07/03 01:58:26;;;;;;;;;;;;;;;23.89;48.90;100190.19;4370649;32;19993;-81
2022/07/03 02:00:56;;;;;;;;;;;;;;;23.91;48.74;100177.78;4370478;32;19983;-80
2022/07/03 02:03:27;;;;;;;;;;;;;;;24.00;48.40;100177.47;4370421;32;19983;-83
2022/07/03 02:06:12;;;;;;;;;;;;;;;24.05;48.32;100180.81;4370369;32;19998;-83
2022/07/03 02:08:50;;;;;;;;;;;;;;;24.11;48.21;100177.97;4370757;32;19979;-79
2022/07/03 02:11:38;;;;;;;;;;;;;;;24.02;48.56;100186.19;4370847;32;20392;-81
2022/07/03 02:14:08;;;;;;;;;;;;;;;23.75;49.52;100187.13;4383618;32;19974;-82
2022/07/03 02:16:40;;;;;;;;;;;;;;;23.70;49.08;100189.06;4385364;32;19974;-81
2022/07/03 02:19:07;;;;;;;;;;;;;;;23.88;48.93;100185.81;4392998;32;20028;-82
2022/07/03 02:21:34;;;;;;;;;;;;;;;23.91;48.74;100188.34;4386685;32;19983;-81
2022/07/03 02:24:03;;;;;;;;;;;;;;;23.90;48.82;100186.63;4394374;32;19985;-78
2022/07/03 02:26:34;;;;;;;;;;;;;;;23.73;49.16;100183.66;4399132;32;19970;-80
2022/07/03 02:29:05;;;;;;;;;;;;;;;23.73;49.35;100181.03;4405875;32;19991;-82
2022/07/03 02:31:33;;;;;;;;;;;;;;;23.84;48.92;100181.56;4395862;32;20055;-81
2022/07/03 02:34:01;;;;;;;;;;;;;;;23.54;49.86;100184.22;4406440;32;20453;-82
2022/07/03 02:36:29;;;;;;;;;;;;;;;23.56;49.80;100181.53;4406401;32;20037;-81
2022/07/03 02:38:56;;;;;;;;;;;;;;;23.51;49.97;100189.59;4409281;32;20023;-82
2022/07/03 02:41:26;;;;;;;;;;;;;;;23.75;49.04;100181.84;4415932;32;20021;-82
2022/07/03 02:44:01;;;;;;;;;;;;;;;23.75;49.09;100192.44;4426392;32;20065;-83
2022/07/03 02:46:49;;;;;;;;;;;;;;;23.60;49.73;100184.03;4416032;32;19982;-81
2022/07/03 02:49:35;;;;;;;;;;;;;;;23.63;49.54;100188.34;4421199;32;19966;-82
2022/07/03 02:52:08;;;;;;;;;;;;;;;23.62;49.47;100191.94;4403239;32;20888;-83
2022/07/03 02:54:38;;;;;;;;;;;;;;;23.67;49.11;100196.16;4400252;32;20002;-82
2022/07/03 02:57:06;;;;;;;;;;;;;;;23.59;49.52;100187.59;4413217;32;20024;-80
2022/07/03 02:59:33;;;;;;;;;;;;;;;23.62;49.72;100190.13;4402012;32;19989;-83
2022/07/03 03:02:04;;;;;;;;;;;;;;;23.38;50.35;100197.03;4398802;32;20371;-83
2022/07/03 03:04:31;;;;;;;;;;;;;;;23.71;49.05;100190.78;4417793;32;20746;-80
2022/07/03 03:07:03;;;;;;;;;;;;;;;23.72;49.42;100185.44;4400306;32;19983;-81
2022/07/03 03:09:34;;;;;;;;;;;;;;;23.30;50.91;100185.00;4412305;32;20025;-81
2022/07/03 03:12:01;;;;;;;;;;;;;;;23.35;50.66;100193.63;4428168;32;19978;-78
2022/07/03 03:14:31;;;;;;;;;;;;;;;23.42;50.70;100200.44;4416846;32;20033;-79
2022/07/03 03:16:58;;;;;;;;;;;;;;;23.48;50.43;100192.34;4413137;32;19999;-78
2022/07/03 03:19:25;;;;;;;;;;;;;;;23.45;50.60;100192.44;4432873;32;20028;-80
2022/07/03 03:21:58;;;;;;;;;;;;;;;23.52;49.83;100185.22;4423481;32;20315;-81
2022/07/03 03:24:26;;;;;;;;;;;;;;;23.50;50.40;100187.88;4408471;32;19997;-82
2022/07/03 03:26:53;;;;;;;;;;;;;;;23.68;49.89;100186.44;4385143;32;20000;-82
2022/07/03 03:29:20;;;;;;;;;;;;;;;23.52;50.68;100185.22;4391602;32;19992;-81
2022/07/03 03:31:47;;;;;;;;;;;;;;;23.50;50.57;100182.59;4390702;32;20686;-82
2022/07/03 03:34:15;;;;;;;;;;;;;;;23.53;50.18;100182.50;4405792;32;19978;-85
2022/07/03 03:36:42;;;;;;;;;;;;;;;23.65;49.92;100187.41;4395713;32;19974;-84
2022/07/03 03:39:09;;;;;;;;;;;;;;;23.59;50.18;100177.03;4412034;32;20334;-84
2022/07/03 03:41:35;;;;;;;;;;;;;;;23.46;50.50;100180.13;4416957;32;19992;-82
2022/07/03 03:44:02;;;;;;;;;;;;;;;23.40;51.15;100179.37;4414139;32;20000;-82
2022/07/03 03:46:29;;;;;;;;;;;;;;;23.28;51.29;100170.97;4408227;32;19982;-84
2022/07/03 03:48:56;;;;;;;;;;;;;;;23.47;50.51;100171.25;4401987;32;20000;-83
2022/07/03 03:51:23;;;;;;;;;;;;;;;23.62;50.27;100171.63;4401654;32;20313;-82
2022/07/03 03:53:50;;;;;;;;;;;;;;;23.42;51.39;100171.38;4410389;32;19978;-79
2022/07/03 03:56:18;;;;;;;;;;;;;;;23.57;51.16;100176.19;4401033;32;19985;-79
2022/07/03 03:58:45;;;;;;;;;;;;;;;23.69;50.92;100184.69;4398992;32;19978;-80
2022/07/03 04:01:12;;;;;;;;;;;;;;;23.81;49.79;100192.22;4405521;32;19986;-81
2022/07/03 04:03:40;;;;;;;;;;;;;;;23.63;50.64;100191.84;4401203;32;20364;-85
2022/07/03 04:06:06;;;;;;;;;;;;;;;23.56;50.82;100192.97;4395589;32;20028;-83
2022/07/03 04:08:33;;;;;;;;;;;;;;;23.65;50.60;100187.41;4420542;32;20360;-82
2022/07/03 04:11:00;;;;;;;;;;;;;;;23.55;51.07;100204.47;4406826;32;19989;-78
2022/07/03 04:13:27;;;;;;;;;;;;;;;23.67;50.91;100201.44;4430975;32;20000;-82
2022/07/03 04:15:54;;;;;;;;;;;;;;;23.80;50.55;100201.06;4427975;32;19998;-82
2022/07/03 04:18:23;;;;;;;;;;;;;;;23.79;50.84;100199.34;4419553;32;20387;-82
2022/07/03 04:20:55;;;;;;;;;;;;;;;23.80;51.20;100201.06;4416817;32;20025;-81
2022/07/03 04:23:22;;;;;;;;;;;;;;;23.91;51.26;100198.94;4420560;32;19996;-81
2022/07/03 04:25:48;;;;;;;;;;;;;;;23.97;50.63;100198.72;4431542;32;19987;-79
2022/07/03 04:28:15;;;;;;;;;;;;;;;24.03;50.04;100182.66;4432086;32;20530;-81
2022/07/03 04:30:46;;;;;;;;;;;;;;;24.10;49.85;100189.47;4430324;32;19996;-78
2022/07/03 04:33:14;;;;;;;;;;;;;;;24.17;49.67;100183.97;4420693;32;19970;-79
2022/07/03 04:35:41;;;;;;;;;;;;;;;24.13;50.12;100183.22;4425113;32;19992;-80
2022/07/03 04:38:08;;;;;;;;;;;;;;;24.12;50.28;100187.66;4419787;32;20315;-83
2022/07/03 04:40:34;;;;;;;;;;;;;;;24.19;50.82;100176.84;4420410;32;20091;-80
2022/07/03 04:43:01;;;;;;;;;;;;;;;24.08;51.75;100175.41;4412147;32;20041;-80
2022/07/03 04:45:28;;;;;;;;;;;;;;;24.34;51.10;100171.00;4422197;32;19982;-81
2022/07/03 04:47:55;;;;;;;;;;;;;;;24.34;50.85;100165.72;4417153;32;20460;-82
2022/07/03 04:50:22;;;;;;;;;;;;;;;24.45;51.02;100168.88;4417208;32;19993;-84
2022/07/03 04:52:49;;;;;;;;;;;;;;;24.56;50.44;100169.34;4416568;32;20452;-83
2022/07/03 04:55:16;;;;;;;;;;;;;;;24.59;50.95;100169.22;4412545;32;20013;-80
2022/07/03 04:57:42;;;;;;;;;;;;;;;24.59;51.25;100166.59;4421781;32;20029;-84
2022/07/03 05:00:12;;;;;;;;;;;;;;;24.72;50.54;100160.84;4420752;32;20078;-79
2022/07/03 05:02:39;;;;;;;;;;;;;;;24.77;50.90;100159.75;4416207;32;20010;-83
2022/07/03 05:05:06;;;;;;;;;;;;;;;24.73;50.99;100159.91;4416131;32;19978;-84
2022/07/03 05:07:33;;;;;;;;;;;;;;;24.81;50.58;100155.22;4412544;32;20053;-83
2022/07/03 05:10:00;;;;;;;;;;;;;;;24.92;50.55;100158.34;4421815;32;20041;-85
2022/07/03 05:12:27;;;;;;;;;;;;;;;24.99;50.00;100159.81;4416161;32;20442;-79
2022/07/03 05:14:54;;;;;;;;;;;;;;;25.02;50.38;100154.41;4415593;32;19986;-82
2022/07/03 05:17:21;;;;;;;;;;;;;;;25.03;49.85;100150.81;4418619;32;19974;-84
2022/07/03 05:19:47;;;;;;;;;;;;;;;25.17;49.49;100146.81;4414177;32;20073;-79
2022/07/03 05:22:17;;;;;;;;;;;;;;;25.27;49.17;100148.16;4419281;32;19970;-80
2022/07/03 05:24:43;;;;;;;;;;;;;;;25.23;49.66;100146.56;4416108;32;20010;-84
2022/07/03 05:27:10;;;;;;;;;;;;;;;25.22;49.66;100144.84;4414461;32;19986;-83
2022/07/03 05:29:37;;;;;;;;;;;;;;;25.34;49.24;100144.38;4430612;32;19993;-80
2022/07/03 05:32:05;;;;;;;;;;;;;;;24.84;50.26;100155.09;4409995;32;19982;-82
2022/07/03 05:34:31;;;;;;;;;;;;;;;25.02;50.34;100143.81;4420468;32;19981;-84
2022/07/03 05:36:58;;;;;;;;;;;;;;;24.99;49.92;100148.38;4412302;32;20016;-81
2022/07/03 05:39:35;;;;;;;;;;;;;;;25.32;49.37;100146.19;4420550;32;20734;-79
2022/07/03 05:42:02;;;;;;;;;;;;;;;25.36;49.66;100150.44;4415582;32;20390;-86
2022/07/03 05:44:29;;;;;;;;;;;;;;;25.42;49.50;100158.16;4417047;32;19985;-85
2022/07/03 05:46:56;;;;;;;;;;;;;;;25.61;49.23;100152.13;4416645;32;20000;-81
2022/07/03 05:49:23;;;;;;;;;;;;;;;25.59;49.05;100160.16;4416153;32;20045;-82
2022/07/03 05:51:50;;;;;;;;;;;;;;;25.61;48.87;100157.41;4427177;32;19990;-86
2022/07/03 05:54:16;;;;;;;;;;;;;;;25.81;48.17;100162.78;4416099;32;20009;-82
2022/07/03 05:56:43;;;;;;;;;;;;;;;25.79;48.23;100156.66;4415844;32;20024;-81
2022/07/03 05:59:10;;;;;;;;;;;;;;;25.91;48.22;100161.50;4407596;32;20003;-78
2022/07/03 06:01:38;;;;;;;;;;;;;;;25.89;48.10;100151.88;4415212;32;20007;-82
2022/07/03 06:04:05;;;;;;;;;;;;;;;25.97;47.91;100161.25;4415803;32;20004;-82
2022/07/03 06:06:32;;;;;;;;;;;;;;;26.08;47.86;100160.78;4413078;32;20426;-80
2022/07/03 06:08:59;;;;;;;;;;;;;;;26.18;47.82;100169.19;4419056;32;20306;-77
2022/07/03 06:11:26;;;;;;;;;;;;;;;26.22;47.80;100170.78;4418737;32;19978;-79
2022/07/03 06:13:52;;;;;;;;;;;;;;;26.35;47.35;100171.97;4415850;32;20069;-81
2022/07/03 06:16:19;;;;;;;;;;;;;;;26.58;47.15;100175.44;4415531;32;19989;-78
2022/07/03 06:18:46;;;;;;;;;;;;;;;26.52;47.57;100178.38;4415537;32;19979;-79
2022/07/03 06:21:13;;;;;;;;;;;;;;;27.14;46.15;100182.63;4415954;32;19993;-82
2022/07/03 06:23:40;;;;;;;;;;;;;;;27.52;45.55;100177.28;4411399;32;20024;-78
2022/07/03 06:26:15;;;;;;;;;;;;;;;27.93;45.05;100187.72;4422249;32;20023;-82
2022/07/03 06:28:42;;;;;;;;;;;;;;;28.11;44.03;100176.16;4414778;32;19993;-75
2022/07/03 06:31:09;;;;;;;;;;;;;;;28.60;43.61;100178.06;4413978;32;19986;-76
2022/07/03 06:33:36;;;;;;;;;;;;;;;28.82;42.77;100169.78;4421527;32;19982;-80
2022/07/03 06:36:03;;;;;;;;;;;;;;;29.04;42.56;100167.72;4418396;32;19998;-77
2022/07/03 06:38:30;;;;;;;;;;;;;;;29.37;40.70;100161.41;4415244;32;20311;-77
2022/07/03 06:40:57;;;;;;;;;;;;;;;29.61;40.86;100162.72;4415501;32;20416;-77
2022/07/03 06:43:24;;;;;;;;;;;;;;;29.71;40.42;100163.06;4419605;32;20016;-79
2022/07/03 06:45:51;;;;;;;;;;;;;;;29.85;39.82;100155.09;4415156;32;20016;-82
2022/07/03 06:48:18;;;;;;;;;;;;;;;30.31;39.44;100167.50;4405820;32;19982;-80
2022/07/03 06:50:45;;;;;;;;;;;;;;;30.52;39.26;100154.66;4399128;32;20023;-78
2022/07/03 06:53:12;;;;;;;;;;;;;;;30.34;37.82;100151.31;4400059;32;20037;-80
2022/07/03 06:55:39;;;;;;;;;;;;;;;30.76;37.63;100152.25;4399824;32;20710;-79
2022/07/03 06:58:05;;;;;;;;;;;;;;;30.84;37.55;100150.00;4379699;32;20341;-79
2022/07/03 07:00:32;;;;;;;;;;;;;;;31.28;38.01;100157.00;4356134;32;19994;-80
2022/07/03 07:02:59;;;;;;;;;;;;;;;31.08;37.92;100152.94;4373237;32;19986;-80
2022/07/03 07:05:26;;;;;;;;;;;;;;;30.87;38.32;100141.81;4370467;32;19994;-80
2022/07/03 07:07:53;;;;;;;;;;;;;;;31.29;37.31;100145.34;4369681;32;19975;-82
2022/07/03 07:10:20;;;;;;;;;;;;;;;31.30;38.10;100141.69;4365226;32;19983;-80
2022/07/03 07:12:47;;;;;;;;;;;;;;;31.37;36.59;100140.38;4376072;32;19980;-81
2022/07/03 07:15:14;;;;;;;;;;;;;;;31.74;36.78;100145.97;4353069;32;19999;-80
2022/07/03 07:17:41;;;;;;;;;;;;;;;31.91;36.42;100140.38;4421483;32;20001;-79
2022/07/03 07:20:10;;;;;;;;;;;;;;;32.13;35.63;100142.44;4415932;32;20342;-79
2022/07/03 07:22:37;;;;;;;;;;;;;;;31.46;35.97;100146.94;4415379;32;19997;-81
2022/07/03 07:25:04;;;;;;;;;;;;;;;31.77;35.16;100148.44;4414431;32;19961;-84
2022/07/03 07:27:31;;;;;;;;;;;;;;;31.59;35.95;100147.84;4414797;32;19993;-78
2022/07/03 07:29:58;;;;;;;;;;;;;;;31.58;36.35;100147.94;4414063;32;20347;-82
2022/07/03 07:32:25;;;;;;;;;;;;;;;31.89;35.27;100144.09;4413487;32;19978;-80
2022/07/03 07:34:52;;;;;;;;;;;;;;;32.06;36.09;100145.63;4420720;32;19991;-79
2022/07/03 07:37:19;;;;;;;;;;;;;;;32.28;36.88;100145.00;4416057;32;19981;-88
2022/07/03 07:39:47;;;;;;;;;;;;;;;31.30;36.52;100147.03;4416595;32;19993;-82
2022/07/03 07:42:13;;;;;;;;;;;;;;;31.50;36.54;100143.13;4411915;32;20000;-81
2022/07/03 07:44:40;;;;;;;;;;;;;;;32.03;36.44;100151.19;4412332;32;20018;-84
2022/07/03 07:47:07;;;;;;;;;;;;;;;32.64;34.88;100147.81;4409505;32;19990;-82
2022/07/03 07:49:34;;;;;;;;;;;;;;;32.68;34.28;100148.47;4425138;32;20291;-88
2022/07/03 07:52:01;;;;;;;;;;;;;;;33.07;33.16;100149.28;4421187;32;20481;-84
2022/07/03 07:54:29;;;;;;;;;;;;;;;32.85;34.11;100150.78;4416471;32;19970;-86
2022/07/03 07:56:55;;;;;;;;;;;;;;;33.05;34.69;100151.19;4408509;32;20037;-85
2022/07/03 07:59:22;;;;;;;;;;;;;;;32.91;33.17;100154.00;4424269;32;20461;-84
2022/07/03 08:07:21;;;;;;;;;;;;;;;33.14;32.78;100161.25;4416331;32;20001;-86
2022/07/03 08:09:48;;;;;;;;;;;;;;;32.95;33.97;100160.84;4424029;32;20291;-83
2022/07/03 08:12:16;;;;;;;;;;;;;;;33.15;34.20;100157.59;4422452;32;20338;-82
2022/07/03 08:14:42;;;;;;;;;;;;;;;33.14;33.22;100155.03;4416489;32;20311;-81
2022/07/03 08:17:09;;;;;;;;;;;;;;;33.55;31.71;100154.69;4412386;32;19994;-89
2022/07/03 08:19:36;;;;;;;;;;;;;;;33.53;35.13;100151.25;4421392;32;19985;-82
2022/07/03 08:22:03;;;;;;;;;;;;;;;33.67;34.05;100153.78;4428326;32;20452;-88
2022/07/03 08:24:30;;;;;;;;;;;;;;;34.01;32.65;100161.94;4417548;32;20457;-86
2022/07/03 08:26:57;;;;;;;;;;;;;;;34.19;31.97;100147.12;4416359;32;20432;-88
2022/07/03 08:29:24;;;;;;;;;;;;;;;33.75;34.27;100156.72;4421340;32;20001;-88
2022/07/03 08:31:51;;;;;;;;;;;;;;;33.91;30.97;100144.81;4406005;32;20366;-87
2022/07/03 08:34:18;;;;;;;;;;;;;;;33.79;32.52;100147.47;4420524;32;20039;-91
2022/07/03 08:36:45;;;;;;;;;;;;;;;33.80;33.36;100151.03;4418918;32;20330;-85
2022/07/03 08:39:12;;;;;;;;;;;;;;;33.68;34.25;100149.25;4417203;32;20267;-82
2022/07/03 08:41:39;;;;;;;;;;;;;;;34.28;31.08;100147.41;4417740;32;20003;-90
2022/07/03 08:44:07;;;;;;;;;;;;;;;33.86;32.66;100147.88;4419143;32;20564;-82
2022/07/03 08:46:34;;;;;;;;;;;;;;;33.15;32.24;100146.88;4406875;32;20366;-84
2022/07/03 08:49:01;;;;;;;;;;;;;;;33.23;32.86;100155.22;4415072;32;20045;-83
2022/07/03 08:51:28;;;;;;;;;;;;;;;34.03;31.61;100150.13;4422359;32;20419;-92
2022/07/03 08:53:55;;;;;;;;;;;;;;;33.89;32.77;100144.06;4417235;32;19978;-91
2022/07/03 08:56:22;;;;;;;;;;;;;;;34.34;30.25;100146.91;4435393;32;20330;-83
2022/07/03 08:58:49;;;;;;;;;;;;;;;34.17;31.52;100146.38;4418374;32;20041;-88
2022/07/03 09:01:17;;;;;;;;;;;;;;;34.49;30.91;100141.19;4413436;32;20035;-86
2022/07/03 09:03:44;;;;;;;;;;;;;;;34.16;32.60;100133.91;4432128;32;19991;-80
2022/07/03 09:06:12;;;;;;;;;;;;;;;34.55;30.52;100139.00;4427734;32;20053;-80
2022/07/03 09:08:42;;;;;;;;;;;;;;;34.81;29.83;100136.91;4419817;32;19982;-83
2022/07/03 09:11:08;;;;;;;;;;;;;;;34.59;29.63;100135.97;4440917;32;20534;-81
2022/07/03 09:13:35;;;;;;;;;;;;;;;34.58;29.08;100134.25;4430274;32;20064;-81
2022/07/03 09:16:02;;;;;;;;;;;;;;;34.56;28.94;100130.84;4415824;32;19997;-82
2022/07/03 09:18:37;;;;;;;;;;;;;;;34.68;29.77;100124.44;4425715;32;20049;-87
2022/07/03 09:21:04;;;;;;;;;;;;;;;34.03;29.70;100133.16;4423820;32;19982;-82
2022/07/03 09:23:41;;;;;;;;;;;;;;;34.40;28.71;100128.47;4425923;32;19990;-85
2022/07/03 09:26:12;;;;;;;;;;;;;;;34.54;28.80;100122.03;4420830;32;19982;-80
2022/07/03 09:28:44;;;;;;;;;;;;;;;35.32;27.17;100117.50;4418312;32;20000;-88
2022/07/03 09:31:12;;;;;;;;;;;;;;;34.87;29.38;100120.28;4421425;32;20383;-82
2022/07/03 09:33:51;;;;;;;;;;;;;;;34.94;27.00;100113.41;4419382;32;19989;-82
2022/07/03 09:36:20;;;;;;;;;;;;;;;34.83;30.73;100108.91;4429005;32;20015;-81
2022/07/03 09:38:47;;;;;;;;;;;;;;;35.35;26.52;100111.87;4414517;32;20477;-82
2022/07/03 09:41:16;;;;;;;;;;;;;;;35.47;26.70;100110.84;4419672;32;20117;-81
2022/07/03 09:43:43;;;;;;;;;;;;;;;35.19;27.67;100106.91;4422919;32;19988;-83
2022/07/03 09:46:10;;;;;;;;;;;;;;;35.22;26.68;100097.75;4421300;32;20319;-80
2022/07/03 09:48:41;;;;;;;;;;;;;;;35.37;27.30;100099.16;4421329;32;19982;-87
2022/07/03 09:51:19;;;;;;;;;;;;;;;35.11;27.79;100096.78;4416489;32;20712;-87
2022/07/03 09:53:59;;;;;;;;;;;;;;;35.34;28.24;100088.63;4413540;32;20057;-92
2022/07/03 09:56:34;;;;;;;;;;;;;;;35.39;27.44;100092.66;4430776;32;19982;-83
2022/07/03 09:59:03;;;;;;;;;;;;;;;35.54;26.61;100093.22;4414682;32;19982;-84
2022/07/03 10:01:31;;;;;;;;;;;;;;;35.41;27.55;100092.53;4406760;32;20429;-92
2022/07/03 10:04:08;;;;;;;;;;;;;;;35.52;26.19;100092.50;4384951;32;20114;-88
2022/07/03 10:06:56;;;;;;;;;;;;;;;34.86;29.39;100094.37;4390956;32;20050;-88
2022/07/03 10:09:23;;;;;;;;;;;;;;;35.01;30.26;100082.34;4385629;32;19979;-85
2022/07/03 10:11:50;;;;;;;;;;;;;;;35.30;29.38;100076.44;4385726;32;20062;-86
2022/07/03 10:14:21;;;;;;;;;;;;;;;35.88;25.79;100087.66;4403607;32;19974;-83
2022/07/03 10:16:48;;;;;;;;;;;;;;;35.79;25.14;100072.28;4413090;32;19982;-88
2022/07/03 10:19:18;;;;;;;;;;;;;;;35.78;25.18;100084.06;4414363;32;20112;-84
2022/07/03 10:21:52;;;;;;;;;;;;;;;35.73;26.13;100065.59;4416074;32;20037;-86
2022/07/03 10:24:21;;;;;;;;;;;;;;;35.74;26.00;100066.44;4427451;32;20697;-87
2022/07/03 10:26:48;;;;;;;;;;;;;;;35.80;25.96;100068.59;4415664;32;19989;-88
2022/07/03 10:29:15;;;;;;;;;;;;;;;35.67;26.04;100068.81;4411335;32;20339;-87
2022/07/03 10:31:48;;;;;;;;;;;;;;;35.87;26.05;100059.03;4407317;32;19997;-86
2022/07/03 10:34:22;;;;;;;;;;;;;;;36.08;25.81;100067.97;4405765;32;19998;-91
2022/07/03 10:36:59;;;;;;;;;;;;;;;36.39;24.57;100053.63;4405418;32;20354;-87
2022/07/03 10:39:26;;;;;;;;;;;;;;;36.53;24.33;100056.81;4399097;32;19990;-89
2022/07/03 10:44:53;;;;;;;;;;;;;;;36.35;24.26;100050.37;4425492;32;20033;-85
2022/07/03 10:47:37;;;;;;;;;;;;;;;36.63;22.49;100062.28;4415318;32;19982;-87
2022/07/03 10:50:06;;;;;;;;;;;;;;;36.41;24.35;100046.25;4409593;32;19993;-89
2022/07/03 10:52:33;;;;;;;;;;;;;;;36.31;23.88;100046.22;4421495;32;19978;-88
2022/07/03 10:55:03;;;;;;;;;;;;;;;36.25;25.73;100044.06;4415254;32;20283;-91
2022/07/03 10:57:29;;;;;;;;;;;;;;;36.15;24.89;100045.84;4417033;32;19993;-84
2022/07/03 10:59:57;;;;;;;;;;;;;;;36.53;24.23;100039.78;4400153;32;20004;-82
2022/07/03 11:02:37;;;;;;;;;;;;;;;36.40;23.70;100034.59;4399818;32;20029;-84
2022/07/03 11:05:07;;;;;;;;;;;;;;;36.43;23.74;100034.34;4403317;32;20327;-84
2022/07/03 11:07:50;;;;;;;;;;;;;;;36.21;24.40;100026.44;4419552;32;19978;-86
2022/07/03 11:44:05;;;;;;;;;;;;;;;36.46;25.08;100001.69;4564081;27;19995;-82
2022/07/03 11:46:37;;;;;;;;;;;;;;;36.62;25.22;100000.37;4339950;32;19997;-83
2022/07/03 11:49:04;;;;;;;;;;;;;;;36.63;25.19;99993.97;4349936;32;20042;-83
2022/07/03 11:51:32;;;;;;;;;;;;;;;36.71;24.39;99994.13;4034140;32;10000946;-82
2022/07/03 11:53:59;;;;;;;;;;;;;;;36.84;24.85;99986.63;4251370;32;861817;-84
2022/07/03 11:56:26;;;;;;;;;;;;;;;36.65;25.08;99983.91;4282263;33;20053;-89
2022/07/03 11:58:54;;;;;;;;;;;;;;;36.77;26.10;99982.78;4272832;33;20010;-93
2022/07/03 12:01:21;;;;;;;;;;;;;;;36.94;24.92;99979.38;4283640;33;20064;-91
2022/07/03 12:03:48;;;;;;;;;;;;;;;36.47;27.28;99968.38;4282036;33;19969;-90
2022/07/03 12:06:15;;;;;;;;;;;;;;;36.73;25.67;99970.56;4285952;33;20474;-87
2022/07/03 12:08:46;;;;;;;;;;;;;;;36.40;27.29;99969.91;4296311;33;20035;-93
2022/07/03 12:11:13;;;;;;;;;;;;;;;37.03;24.49;99966.06;4297390;33;19977;-87
2022/07/03 12:13:40;;;;;;;;;;;;;;;36.68;24.72;99972.84;4295341;33;19992;-86
2022/07/03 12:16:14;;;;;;;;;;;;;;;36.60;23.69;99965.44;4298008;33;20040;-87
2022/07/03 12:18:48;;;;;;;;;;;;;;;36.73;23.34;99967.88;4304362;33;19984;-87
2022/07/03 12:21:15;;;;;;;;;;;;;;;36.74;24.51;99966.88;4311107;33;20497;-92
2022/07/03 12:23:47;;;;;;;;;;;;;;;37.12;22.54;99951.72;4314584;33;19992;-92
2022/07/03 12:26:25;;;;;;;;;;;;;;;36.80;24.54;99950.13;4311864;33;20334;-86
2022/07/03 12:28:52;;;;;;;;;;;;;;;36.66;23.15;99942.44;4311765;33;20004;-87
2022/07/03 12:31:19;;;;;;;;;;;;;;;36.99;22.37;99935.81;4312200;33;19988;-85
2022/07/03 12:33:46;;;;;;;;;;;;;;;37.02;22.74;99937.38;4312570;33;20447;-88
2022/07/03 12:36:13;;;;;;;;;;;;;;;37.15;22.84;99937.94;4304648;33;20014;-82
2022/07/03 12:38:40;;;;;;;;;;;;;;;37.29;21.83;99940.16;4297224;33;19989;-84
2022/07/03 12:41:13;;;;;;;;;;;;;;;37.18;22.85;99930.41;4309059;33;20027;-89
2022/07/03 12:43:40;;;;;;;;;;;;;;;37.04;22.10;99935.38;4297532;33;19981;-92
2022/07/03 12:46:19;;;;;;;;;;;;;;;37.07;21.61;99929.69;4287095;33;19989;-81
2022/07/03 12:48:46;;;;;;;;;;;;;;;36.79;22.57;99937.59;4294174;33;19980;-89
2022/07/03 12:51:13;;;;;;;;;;;;;;;36.84;23.06;99927.25;4290417;33;20000;-87
2022/07/03 12:53:41;;;;;;;;;;;;;;;36.87;22.03;99929.66;4291763;33;19989;-87
2022/07/03 12:56:09;;;;;;;;;;;;;;;37.06;21.57;99928.00;4305845;33;20738;-89
2022/07/03 13:01:25;;;;;;;;;;;;;;;36.86;21.83;99925.28;4294561;33;19989;-84
2022/07/03 13:03:52;;;;;;;;;;;;;;;36.31;22.72;99916.78;4294545;33;19980;-89
2022/07/03 13:06:20;;;;;;;;;;;;;;;36.66;23.89;99923.56;4283725;33;20516;-90
2022/07/03 13:08:54;;;;;;;;;;;;;;;36.78;21.20;99922.44;4292292;33;20007;-89
2022/07/03 13:11:37;;;;;;;;;;;;;;;36.61;22.38;99923.13;4281615;33;20007;-91
2022/07/03 13:14:12;;;;;;;;;;;;;;;36.72;21.89;99926.53;4293468;33;19991;-91
2022/07/03 13:16:40;;;;;;;;;;;;;;;36.90;21.86;99912.34;4294064;33;20012;-84
2022/07/03 13:19:08;;;;;;;;;;;;;;;36.59;23.03;99915.16;4305359;33;19988;-86
2022/07/03 13:21:35;;;;;;;;;;;;;;;36.72;22.32;99910.34;4300807;33;20448;-88
2022/07/03 13:24:02;;;;;;;;;;;;;;;36.86;21.82;99905.53;4290871;33;20457;-91
2022/07/03 13:26:30;;;;;;;;;;;;;;;36.93;21.48;99910.22;4294890;33;20483;-82
2022/07/03 13:28:56;;;;;;;;;;;;;;;36.92;20.93;99911.22;4281680;33;20330;-87
2022/07/03 13:31:23;;;;;;;;;;;;;;;36.82;21.57;99902.25;4293270;33;20007;-85